sensor_id;sensor_type;location;lat;lon;timestamp;P1;durP1;ratioP1;P2;durP2;ratioP2
9671;SDS011;4874;43.568;27.824;2022-08-19T00:01:54;8.65;;;6.95;;
9671;SDS011;4874;43.568;27.824;2022-08-19T00:04:26;10.57;;;7.63;;
9671;SDS011;4874;43.568;27.824;2022-08-19T00:06:56;10.32;;;7.07;;
9671;SDS011;4874;43.568;27.824;2022-08-19T00:09:24;10.70;;;6.63;;
9671;SDS011;4874;43.568;27.824;2022-08-19T00:11:51;9.15;;;6.80;;
9671;SDS011;4874;43.568;27.824;2022-08-19T00:14:19;8.52;;;6.78;;
9671;SDS011;4874;43.568;27.824;2022-08-19T00:16:47;9.52;;;7.20;;
9671;SDS011;4874;43.568;27.824;2022-08-19T00:19:15;7.97;;;6.50;;
9671;SDS011;4874;43.568;27.824;2022-08-19T00:21:42;9.57;;;7.20;;
9671;SDS011;4874;43.568;27.824;2022-08-19T00:24:10;11.15;;;6.45;;
9671;SDS011;4874;43.568;27.824;2022-08-19T00:26:39;9.82;;;7.20;;
9671;SDS011;4874;43.568;27.824;2022-08-19T00:29:07;9.88;;;6.88;;
9671;SDS011;4874;43.568;27.824;2022-08-19T00:31:36;9.50;;;6.97;;
9671;SDS011;4874;43.568;27.824;2022-08-19T00:34:02;8.35;;;6.32;;
9671;SDS011;4874;43.568;27.824;2022-08-19T00:36:30;8.98;;;6.70;;
9671;SDS011;4874;43.568;27.824;2022-08-19T00:38:59;10.70;;;6.82;;
9671;SDS011;4874;43.568;27.824;2022-08-19T00:41:27;10.68;;;7.35;;
9671;SDS011;4874;43.568;27.824;2022-08-19T00:46:25;10.13;;;6.70;;
9671;SDS011;4874;43.568;27.824;2022-08-19T00:48:53;8.77;;;6.63;;
9671;SDS011;4874;43.568;27.824;2022-08-19T00:51:23;14.43;;;7.78;;
9671;SDS011;4874;43.568;27.824;2022-08-19T00:53:53;9.82;;;7.25;;
9671;SDS011;4874;43.568;27.824;2022-08-19T00:56:21;10.82;;;7.60;;
9671;SDS011;4874;43.568;27.824;2022-08-19T00:58:48;12.48;;;7.15;;
9671;SDS011;4874;43.568;27.824;2022-08-19T01:01:15;11.25;;;7.80;;
9671;SDS011;4874;43.568;27.824;2022-08-19T01:03:42;9.27;;;6.97;;
9671;SDS011;4874;43.568;27.824;2022-08-19T01:06:22;10.02;;;7.32;;
9671;SDS011;4874;43.568;27.824;2022-08-19T01:08:49;10.93;;;7.18;;
9671;SDS011;4874;43.568;27.824;2022-08-19T01:11:16;9.15;;;7.30;;
9671;SDS011;4874;43.568;27.824;2022-08-19T01:13:43;10.55;;;7.45;;
9671;SDS011;4874;43.568;27.824;2022-08-19T01:16:15;9.75;;;7.40;;
9671;SDS011;4874;43.568;27.824;2022-08-19T01:18:43;13.88;;;7.95;;
9671;SDS011;4874;43.568;27.824;2022-08-19T01:21:12;10.18;;;7.30;;
9671;SDS011;4874;43.568;27.824;2022-08-19T01:23:47;9.88;;;7.60;;
9671;SDS011;4874;43.568;27.824;2022-08-19T01:26:16;10.35;;;7.53;;
9671;SDS011;4874;43.568;27.824;2022-08-19T01:28:50;10.35;;;7.22;;
9671;SDS011;4874;43.568;27.824;2022-08-19T01:31:21;10.20;;;7.05;;
9671;SDS011;4874;43.568;27.824;2022-08-19T01:33:53;9.60;;;7.65;;
9671;SDS011;4874;43.568;27.824;2022-08-19T01:36:23;10.18;;;7.50;;
9671;SDS011;4874;43.568;27.824;2022-08-19T01:39:04;10.38;;;7.82;;
9671;SDS011;4874;43.568;27.824;2022-08-19T01:41:33;9.60;;;7.50;;
9671;SDS011;4874;43.568;27.824;2022-08-19T01:44:00;10.70;;;7.97;;
9671;SDS011;4874;43.568;27.824;2022-08-19T01:46:39;10.20;;;7.25;;
9671;SDS011;4874;43.568;27.824;2022-08-19T01:49:06;8.77;;;7.53;;
9671;SDS011;4874;43.568;27.824;2022-08-19T01:51:34;10.55;;;7.90;;
9671;SDS011;4874;43.568;27.824;2022-08-19T01:54:04;9.93;;;7.43;;
9671;SDS011;4874;43.568;27.824;2022-08-19T01:56:31;11.35;;;8.10;;
9671;SDS011;4874;43.568;27.824;2022-08-19T01:59:00;10.88;;;7.20;;
9671;SDS011;4874;43.568;27.824;2022-08-19T02:01:30;10.52;;;7.95;;
9671;SDS011;4874;43.568;27.824;2022-08-19T02:04:00;9.57;;;7.05;;
9671;SDS011;4874;43.568;27.824;2022-08-19T02:06:28;9.38;;;7.75;;
9671;SDS011;4874;43.568;27.824;2022-08-19T02:08:55;13.50;;;7.28;;
9671;SDS011;4874;43.568;27.824;2022-08-19T02:11:32;10.93;;;7.70;;
9671;SDS011;4874;43.568;27.824;2022-08-19T02:14:03;12.88;;;7.60;;
9671;SDS011;4874;43.568;27.824;2022-08-19T02:16:32;10.23;;;7.82;;
9671;SDS011;4874;43.568;27.824;2022-08-19T02:18:59;9.98;;;7.68;;
9671;SDS011;4874;43.568;27.824;2022-08-19T02:21:29;9.90;;;7.50;;
9671;SDS011;4874;43.568;27.824;2022-08-19T02:23:56;11.00;;;7.28;;
9671;SDS011;4874;43.568;27.824;2022-08-19T02:26:23;10.07;;;7.20;;
9671;SDS011;4874;43.568;27.824;2022-08-19T02:28:51;11.70;;;7.63;;
9671;SDS011;4874;43.568;27.824;2022-08-19T02:31:21;9.85;;;7.20;;
9671;SDS011;4874;43.568;27.824;2022-08-19T02:33:49;14.05;;;7.35;;
9671;SDS011;4874;43.568;27.824;2022-08-19T02:36:16;13.63;;;8.30;;
9671;SDS011;4874;43.568;27.824;2022-08-19T02:38:46;11.32;;;8.13;;
9671;SDS011;4874;43.568;27.824;2022-08-19T02:41:20;13.43;;;7.75;;
9671;SDS011;4874;43.568;27.824;2022-08-19T02:43:53;10.77;;;7.68;;
9671;SDS011;4874;43.568;27.824;2022-08-19T02:46:39;12.43;;;8.02;;
9671;SDS011;4874;43.568;27.824;2022-08-19T02:49:06;10.68;;;7.50;;
9671;SDS011;4874;43.568;27.824;2022-08-19T02:51:35;10.77;;;7.60;;
9671;SDS011;4874;43.568;27.824;2022-08-19T02:54:05;9.85;;;7.15;;
9671;SDS011;4874;43.568;27.824;2022-08-19T02:56:34;11.55;;;7.90;;
9671;SDS011;4874;43.568;27.824;2022-08-19T02:59:02;10.32;;;7.60;;
9671;SDS011;4874;43.568;27.824;2022-08-19T03:01:34;9.75;;;7.65;;
9671;SDS011;4874;43.568;27.824;2022-08-19T03:04:02;11.93;;;7.50;;
9671;SDS011;4874;43.568;27.824;2022-08-19T03:06:31;9.63;;;7.80;;
9671;SDS011;4874;43.568;27.824;2022-08-19T03:08:58;11.90;;;7.72;;
9671;SDS011;4874;43.568;27.824;2022-08-19T03:11:26;9.18;;;7.43;;
9671;SDS011;4874;43.568;27.824;2022-08-19T03:13:55;11.63;;;7.60;;
9671;SDS011;4874;43.568;27.824;2022-08-19T03:16:24;11.77;;;7.53;;
9671;SDS011;4874;43.568;27.824;2022-08-19T03:18:55;10.13;;;7.55;;
9671;SDS011;4874;43.568;27.824;2022-08-19T03:21:25;12.23;;;7.70;;
9671;SDS011;4874;43.568;27.824;2022-08-19T03:23:55;14.00;;;7.97;;
9671;SDS011;4874;43.568;27.824;2022-08-19T03:26:23;10.95;;;8.35;;
9671;SDS011;4874;43.568;27.824;2022-08-19T03:28:50;13.70;;;7.40;;
9671;SDS011;4874;43.568;27.824;2022-08-19T03:31:23;11.55;;;7.82;;
9671;SDS011;4874;43.568;27.824;2022-08-19T03:34:07;11.23;;;7.40;;
9671;SDS011;4874;43.568;27.824;2022-08-19T03:36:34;11.90;;;8.25;;
9671;SDS011;4874;43.568;27.824;2022-08-19T03:39:01;10.93;;;8.00;;
9671;SDS011;4874;43.568;27.824;2022-08-19T03:41:30;10.45;;;7.70;;
9671;SDS011;4874;43.568;27.824;2022-08-19T03:43:59;11.27;;;7.80;;
9671;SDS011;4874;43.568;27.824;2022-08-19T03:46:27;13.20;;;8.85;;
9671;SDS011;4874;43.568;27.824;2022-08-19T03:48:57;11.82;;;7.53;;
9671;SDS011;4874;43.568;27.824;2022-08-19T03:51:27;11.55;;;8.93;;
9671;SDS011;4874;43.568;27.824;2022-08-19T03:53:59;10.90;;;8.35;;
9671;SDS011;4874;43.568;27.824;2022-08-19T03:56:28;11.85;;;8.05;;
9671;SDS011;4874;43.568;27.824;2022-08-19T03:58:56;14.40;;;9.30;;
9671;SDS011;4874;43.568;27.824;2022-08-19T04:01:26;10.20;;;7.85;;
9671;SDS011;4874;43.568;27.824;2022-08-19T04:03:56;10.40;;;7.82;;
9671;SDS011;4874;43.568;27.824;2022-08-19T04:06:27;15.35;;;9.88;;
9671;SDS011;4874;43.568;27.824;2022-08-19T04:08:57;11.73;;;8.75;;
9671;SDS011;4874;43.568;27.824;2022-08-19T04:11:26;11.45;;;8.50;;
9671;SDS011;4874;43.568;27.824;2022-08-19T04:14:09;14.32;;;8.73;;
9671;SDS011;4874;43.568;27.824;2022-08-19T04:16:42;13.43;;;8.30;;
9671;SDS011;4874;43.568;27.824;2022-08-19T04:19:13;11.60;;;7.88;;
9671;SDS011;4874;43.568;27.824;2022-08-19T04:21:43;12.75;;;8.40;;
9671;SDS011;4874;43.568;27.824;2022-08-19T04:24:12;11.63;;;7.78;;
9671;SDS011;4874;43.568;27.824;2022-08-19T04:26:40;12.23;;;8.35;;
9671;SDS011;4874;43.568;27.824;2022-08-19T04:29:09;12.77;;;8.43;;
9671;SDS011;4874;43.568;27.824;2022-08-19T04:31:38;11.70;;;8.20;;
9671;SDS011;4874;43.568;27.824;2022-08-19T04:34:07;10.98;;;8.23;;
9671;SDS011;4874;43.568;27.824;2022-08-19T04:36:37;11.95;;;8.60;;
9671;SDS011;4874;43.568;27.824;2022-08-19T04:39:08;12.43;;;8.55;;
9671;SDS011;4874;43.568;27.824;2022-08-19T04:41:38;11.63;;;7.63;;
9671;SDS011;4874;43.568;27.824;2022-08-19T04:44:24;15.07;;;10.65;;
9671;SDS011;4874;43.568;27.824;2022-08-19T04:46:51;13.10;;;9.15;;
9671;SDS011;4874;43.568;27.824;2022-08-19T04:49:20;13.25;;;8.95;;
9671;SDS011;4874;43.568;27.824;2022-08-19T04:51:49;13.20;;;8.70;;
9671;SDS011;4874;43.568;27.824;2022-08-19T04:54:17;11.30;;;8.95;;
9671;SDS011;4874;43.568;27.824;2022-08-19T04:56:53;12.68;;;9.40;;
9671;SDS011;4874;43.568;27.824;2022-08-19T04:59:21;15.43;;;9.15;;
9671;SDS011;4874;43.568;27.824;2022-08-19T05:01:48;13.55;;;7.65;;
9671;SDS011;4874;43.568;27.824;2022-08-19T05:04:19;12.98;;;8.90;;
9671;SDS011;4874;43.568;27.824;2022-08-19T05:06:47;17.00;;;9.32;;
9671;SDS011;4874;43.568;27.824;2022-08-19T05:09:15;11.77;;;8.40;;
9671;SDS011;4874;43.568;27.824;2022-08-19T05:11:43;11.13;;;7.80;;
9671;SDS011;4874;43.568;27.824;2022-08-19T05:14:10;15.68;;;8.10;;
9671;SDS011;4874;43.568;27.824;2022-08-19T05:16:39;13.45;;;8.57;;
9671;SDS011;4874;43.568;27.824;2022-08-19T05:19:06;9.70;;;7.20;;
9671;SDS011;4874;43.568;27.824;2022-08-19T05:21:51;12.57;;;8.70;;
9671;SDS011;4874;43.568;27.824;2022-08-19T05:24:36;12.98;;;8.55;;
9671;SDS011;4874;43.568;27.824;2022-08-19T05:27:16;12.07;;;7.97;;
9671;SDS011;4874;43.568;27.824;2022-08-19T05:29:43;13.00;;;8.43;;
9671;SDS011;4874;43.568;27.824;2022-08-19T05:32:10;11.75;;;7.68;;
9671;SDS011;4874;43.568;27.824;2022-08-19T05:34:36;9.98;;;7.50;;
9671;SDS011;4874;43.568;27.824;2022-08-19T05:37:04;12.20;;;9.32;;
9671;SDS011;4874;43.568;27.824;2022-08-19T05:39:32;12.15;;;8.25;;
9671;SDS011;4874;43.568;27.824;2022-08-19T05:42:02;11.85;;;9.45;;
9671;SDS011;4874;43.568;27.824;2022-08-19T05:44:34;30.42;;;22.45;;
9671;SDS011;4874;43.568;27.824;2022-08-19T05:47:05;12.38;;;8.13;;
9671;SDS011;4874;43.568;27.824;2022-08-19T05:49:33;16.05;;;12.02;;
9671;SDS011;4874;43.568;27.824;2022-08-19T05:52:07;12.85;;;8.73;;
9671;SDS011;4874;43.568;27.824;2022-08-19T05:54:38;12.55;;;8.40;;
9671;SDS011;4874;43.568;27.824;2022-08-19T05:57:08;11.13;;;8.40;;
9671;SDS011;4874;43.568;27.824;2022-08-19T05:59:35;11.85;;;9.25;;
9671;SDS011;4874;43.568;27.824;2022-08-19T06:02:02;10.73;;;8.80;;
9671;SDS011;4874;43.568;27.824;2022-08-19T06:04:30;12.00;;;8.20;;
9671;SDS011;4874;43.568;27.824;2022-08-19T06:06:57;9.13;;;7.57;;
9671;SDS011;4874;43.568;27.824;2022-08-19T06:09:24;10.85;;;7.78;;
9671;SDS011;4874;43.568;27.824;2022-08-19T06:11:55;10.57;;;7.60;;
9671;SDS011;4874;43.568;27.824;2022-08-19T06:14:27;13.77;;;8.15;;
9671;SDS011;4874;43.568;27.824;2022-08-19T06:16:56;11.65;;;8.18;;
9671;SDS011;4874;43.568;27.824;2022-08-19T06:19:31;10.60;;;7.57;;
9671;SDS011;4874;43.568;27.824;2022-08-19T06:21:58;11.88;;;8.18;;
9671;SDS011;4874;43.568;27.824;2022-08-19T06:24:27;10.30;;;7.90;;
9671;SDS011;4874;43.568;27.824;2022-08-19T06:26:55;13.90;;;7.38;;
9671;SDS011;4874;43.568;27.824;2022-08-19T06:29:26;12.13;;;7.88;;
9671;SDS011;4874;43.568;27.824;2022-08-19T06:31:54;12.68;;;7.22;;
9671;SDS011;4874;43.568;27.824;2022-08-19T06:34:24;12.95;;;8.45;;
9671;SDS011;4874;43.568;27.824;2022-08-19T06:36:53;15.05;;;8.02;;
9671;SDS011;4874;43.568;27.824;2022-08-19T06:39:23;11.77;;;7.47;;
9671;SDS011;4874;43.568;27.824;2022-08-19T06:41:53;10.70;;;7.43;;
9671;SDS011;4874;43.568;27.824;2022-08-19T06:44:25;9.30;;;7.40;;
9671;SDS011;4874;43.568;27.824;2022-08-19T06:46:53;10.25;;;7.53;;
9671;SDS011;4874;43.568;27.824;2022-08-19T06:49:22;11.18;;;7.10;;
9671;SDS011;4874;43.568;27.824;2022-08-19T06:51:49;11.82;;;7.18;;
9671;SDS011;4874;43.568;27.824;2022-08-19T06:54:17;11.10;;;7.95;;
9671;SDS011;4874;43.568;27.824;2022-08-19T06:56:45;12.57;;;7.38;;
9671;SDS011;4874;43.568;27.824;2022-08-19T06:59:15;13.07;;;7.32;;
9671;SDS011;4874;43.568;27.824;2022-08-19T07:01:45;11.30;;;7.22;;
9671;SDS011;4874;43.568;27.824;2022-08-19T07:04:16;9.95;;;7.28;;
9671;SDS011;4874;43.568;27.824;2022-08-19T07:06:46;9.82;;;7.68;;
9671;SDS011;4874;43.568;27.824;2022-08-19T07:09:14;12.98;;;7.35;;
9671;SDS011;4874;43.568;27.824;2022-08-19T07:11:47;10.50;;;7.03;;
9671;SDS011;4874;43.568;27.824;2022-08-19T07:14:16;9.43;;;7.00;;
9671;SDS011;4874;43.568;27.824;2022-08-19T07:16:46;11.95;;;7.88;;
9671;SDS011;4874;43.568;27.824;2022-08-19T07:19:16;10.85;;;7.35;;
9671;SDS011;4874;43.568;27.824;2022-08-19T07:21:45;9.38;;;7.13;;
9671;SDS011;4874;43.568;27.824;2022-08-19T07:24:13;18.20;;;8.50;;
9671;SDS011;4874;43.568;27.824;2022-08-19T07:26:42;9.13;;;7.00;;
9671;SDS011;4874;43.568;27.824;2022-08-19T07:29:10;9.98;;;7.22;;
9671;SDS011;4874;43.568;27.824;2022-08-19T07:31:37;11.63;;;6.90;;
9671;SDS011;4874;43.568;27.824;2022-08-19T07:34:05;8.25;;;6.22;;
9671;SDS011;4874;43.568;27.824;2022-08-19T07:36:35;9.15;;;6.18;;
9671;SDS011;4874;43.568;27.824;2022-08-19T07:39:06;10.27;;;6.60;;
9671;SDS011;4874;43.568;27.824;2022-08-19T07:41:35;9.32;;;6.88;;
9671;SDS011;4874;43.568;27.824;2022-08-19T07:44:03;11.35;;;8.48;;
9671;SDS011;4874;43.568;27.824;2022-08-19T07:46:36;10.13;;;6.65;;
9671;SDS011;4874;43.568;27.824;2022-08-19T07:49:06;11.18;;;6.80;;
9671;SDS011;4874;43.568;27.824;2022-08-19T07:51:34;8.70;;;6.35;;
9671;SDS011;4874;43.568;27.824;2022-08-19T07:54:02;10.88;;;6.55;;
9671;SDS011;4874;43.568;27.824;2022-08-19T07:56:29;10.82;;;6.60;;
9671;SDS011;4874;43.568;27.824;2022-08-19T07:58:56;11.25;;;6.93;;
9671;SDS011;4874;43.568;27.824;2022-08-19T08:01:24;12.07;;;8.00;;
9671;SDS011;4874;43.568;27.824;2022-08-19T08:03:52;9.10;;;6.75;;
9671;SDS011;4874;43.568;27.824;2022-08-19T08:06:39;8.35;;;5.50;;
9671;SDS011;4874;43.568;27.824;2022-08-19T08:09:27;16.27;;;6.30;;
9671;SDS011;4874;43.568;27.824;2022-08-19T08:12:09;10.30;;;6.68;;
9671;SDS011;4874;43.568;27.824;2022-08-19T08:14:59;13.13;;;7.32;;
9671;SDS011;4874;43.568;27.824;2022-08-19T08:17:29;9.77;;;7.13;;
9671;SDS011;4874;43.568;27.824;2022-08-19T08:20:15;9.45;;;6.25;;
9671;SDS011;4874;43.568;27.824;2022-08-19T08:22:44;10.75;;;6.20;;
9671;SDS011;4874;43.568;27.824;2022-08-19T08:25:31;9.55;;;5.53;;
9671;SDS011;4874;43.568;27.824;2022-08-19T08:27:59;9.45;;;6.03;;
9671;SDS011;4874;43.568;27.824;2022-08-19T08:30:26;8.98;;;5.93;;
9671;SDS011;4874;43.568;27.824;2022-08-19T08:33:22;12.05;;;6.05;;
9671;SDS011;4874;43.568;27.824;2022-08-19T08:35:55;8.90;;;6.45;;
9671;SDS011;4874;43.568;27.824;2022-08-19T08:38:22;6.82;;;5.50;;
9671;SDS011;4874;43.568;27.824;2022-08-19T08:40:57;9.63;;;6.00;;
9671;SDS011;4874;43.568;27.824;2022-08-19T08:43:34;11.35;;;5.97;;
9671;SDS011;4874;43.568;27.824;2022-08-19T08:46:05;11.40;;;6.68;;
9671;SDS011;4874;43.568;27.824;2022-08-19T08:51:32;9.75;;;6.05;;
9671;SDS011;4874;43.568;27.824;2022-08-19T08:54:04;10.60;;;6.25;;
9671;SDS011;4874;43.568;27.824;2022-08-19T08:56:35;8.48;;;6.22;;
9671;SDS011;4874;43.568;27.824;2022-08-19T08:59:10;9.23;;;5.47;;
9671;SDS011;4874;43.568;27.824;2022-08-19T09:01:44;10.48;;;5.72;;
9671;SDS011;4874;43.568;27.824;2022-08-19T09:04:12;8.95;;;6.45;;
9671;SDS011;4874;43.568;27.824;2022-08-19T09:06:59;12.75;;;6.45;;
9671;SDS011;4874;43.568;27.824;2022-08-19T09:09:45;10.00;;;5.50;;
9671;SDS011;4874;43.568;27.824;2022-08-19T09:15:05;9.32;;;5.72;;
9671;SDS011;4874;43.568;27.824;2022-08-19T09:17:35;8.98;;;5.60;;
9671;SDS011;4874;43.568;27.824;2022-08-19T09:22:35;15.40;;;6.22;;
9671;SDS011;4874;43.568;27.824;2022-08-19T09:25:07;9.57;;;6.05;;
9671;SDS011;4874;43.568;27.824;2022-08-19T09:27:36;11.50;;;5.63;;
9671;SDS011;4874;43.568;27.824;2022-08-19T09:30:23;10.02;;;5.55;;
9671;SDS011;4874;43.568;27.824;2022-08-19T09:32:52;10.23;;;5.40;;
9671;SDS011;4874;43.568;27.824;2022-08-19T09:35:21;9.35;;;4.78;;
9671;SDS011;4874;43.568;27.824;2022-08-19T09:37:50;10.43;;;5.72;;
9671;SDS011;4874;43.568;27.824;2022-08-19T09:40:22;10.93;;;5.70;;
9671;SDS011;4874;43.568;27.824;2022-08-19T09:42:50;9.45;;;6.38;;
9671;SDS011;4874;43.568;27.824;2022-08-19T09:45:19;9.25;;;5.43;;
9671;SDS011;4874;43.568;27.824;2022-08-19T09:47:50;9.55;;;5.93;;
9671;SDS011;4874;43.568;27.824;2022-08-19T09:50:19;8.63;;;4.72;;
9671;SDS011;4874;43.568;27.824;2022-08-19T09:52:47;10.57;;;6.70;;
9671;SDS011;4874;43.568;27.824;2022-08-19T09:55:19;7.40;;;4.53;;
9671;SDS011;4874;43.568;27.824;2022-08-19T09:57:46;7.70;;;5.20;;
9671;SDS011;4874;43.568;27.824;2022-08-19T10:00:12;11.77;;;5.15;;
9671;SDS011;4874;43.568;27.824;2022-08-19T10:02:40;8.85;;;5.03;;
9671;SDS011;4874;43.568;27.824;2022-08-19T10:05:08;8.40;;;4.88;;
9671;SDS011;4874;43.568;27.824;2022-08-19T10:07:53;8.80;;;5.18;;
9671;SDS011;4874;43.568;27.824;2022-08-19T10:10:22;6.07;;;4.60;;
9671;SDS011;4874;43.568;27.824;2022-08-19T10:12:49;11.82;;;5.20;;
9671;SDS011;4874;43.568;27.824;2022-08-19T10:15:15;11.48;;;4.78;;
9671;SDS011;4874;43.568;27.824;2022-08-19T10:17:54;12.27;;;6.10;;
9671;SDS011;4874;43.568;27.824;2022-08-19T10:20:21;10.30;;;4.68;;
9671;SDS011;4874;43.568;27.824;2022-08-19T10:22:48;9.32;;;4.70;;
9671;SDS011;4874;43.568;27.824;2022-08-19T10:25:17;9.63;;;4.72;;
9671;SDS011;4874;43.568;27.824;2022-08-19T10:27:43;9.25;;;5.35;;
9671;SDS011;4874;43.568;27.824;2022-08-19T10:30:13;8.95;;;5.35;;
9671;SDS011;4874;43.568;27.824;2022-08-19T10:32:40;6.25;;;5.00;;
9671;SDS011;4874;43.568;27.824;2022-08-19T10:35:11;7.68;;;4.43;;
9671;SDS011;4874;43.568;27.824;2022-08-19T10:37:39;6.63;;;4.53;;
9671;SDS011;4874;43.568;27.824;2022-08-19T10:40:08;7.03;;;4.47;;
9671;SDS011;4874;43.568;27.824;2022-08-19T10:42:37;8.60;;;4.55;;
9671;SDS011;4874;43.568;27.824;2022-08-19T10:45:04;8.95;;;4.75;;
9671;SDS011;4874;43.568;27.824;2022-08-19T10:47:33;7.82;;;4.10;;
9671;SDS011;4874;43.568;27.824;2022-08-19T10:50:00;7.28;;;4.22;;
9671;SDS011;4874;43.568;27.824;2022-08-19T10:52:46;11.20;;;5.00;;
9671;SDS011;4874;43.568;27.824;2022-08-19T10:55:15;13.07;;;5.85;;
9671;SDS011;4874;43.568;27.824;2022-08-19T10:58:13;8.10;;;4.68;;
9671;SDS011;4874;43.568;27.824;2022-08-19T11:00:42;6.20;;;4.20;;
9671;SDS011;4874;43.568;27.824;2022-08-19T11:03:16;10.60;;;4.80;;
9671;SDS011;4874;43.568;27.824;2022-08-19T11:05:44;9.25;;;4.45;;
9671;SDS011;4874;43.568;27.824;2022-08-19T11:08:22;9.98;;;5.13;;
9671;SDS011;4874;43.568;27.824;2022-08-19T11:10:51;9.00;;;4.90;;
9671;SDS011;4874;43.568;27.824;2022-08-19T11:13:21;12.95;;;4.80;;
9671;SDS011;4874;43.568;27.824;2022-08-19T11:15:56;7.07;;;4.13;;
9671;SDS011;4874;43.568;27.824;2022-08-19T11:18:37;10.30;;;4.28;;
9671;SDS011;4874;43.568;27.824;2022-08-19T11:21:07;9.27;;;4.60;;
9671;SDS011;4874;43.568;27.824;2022-08-19T11:23:36;11.82;;;4.90;;
9671;SDS011;4874;43.568;27.824;2022-08-19T11:26:03;8.80;;;4.60;;
9671;SDS011;4874;43.568;27.824;2022-08-19T11:28:30;8.48;;;4.90;;
9671;SDS011;4874;43.568;27.824;2022-08-19T11:30:57;10.85;;;4.45;;
9671;SDS011;4874;43.568;27.824;2022-08-19T11:33:24;12.00;;;4.68;;
9671;SDS011;4874;43.568;27.824;2022-08-19T11:35:52;9.60;;;4.25;;
9671;SDS011;4874;43.568;27.824;2022-08-19T11:38:21;9.70;;;5.00;;
9671;SDS011;4874;43.568;27.824;2022-08-19T11:40:53;8.23;;;5.20;;
9671;SDS011;4874;43.568;27.824;2022-08-19T11:43:22;8.95;;;4.75;;
9671;SDS011;4874;43.568;27.824;2022-08-19T11:45:48;10.32;;;4.55;;
9671;SDS011;4874;43.568;27.824;2022-08-19T11:48:15;10.07;;;4.82;;
9671;SDS011;4874;43.568;27.824;2022-08-19T11:50:42;5.50;;;4.13;;
9671;SDS011;4874;43.568;27.824;2022-08-19T11:53:09;8.13;;;4.40;;
9671;SDS011;4874;43.568;27.824;2022-08-19T11:55:37;11.93;;;6.28;;
9671;SDS011;4874;43.568;27.824;2022-08-19T11:58:08;10.48;;;4.72;;
9671;SDS011;4874;43.568;27.824;2022-08-19T12:00:41;9.23;;;4.28;;
9671;SDS011;4874;43.568;27.824;2022-08-19T12:03:08;11.25;;;5.75;;
9671;SDS011;4874;43.568;27.824;2022-08-19T12:05:36;9.88;;;4.65;;
9671;SDS011;4874;43.568;27.824;2022-08-19T12:08:03;9.15;;;5.10;;
9671;SDS011;4874;43.568;27.824;2022-08-19T12:10:30;8.77;;;4.78;;
9671;SDS011;4874;43.568;27.824;2022-08-19T12:12:58;9.75;;;4.53;;
9671;SDS011;4874;43.568;27.824;2022-08-19T12:15:26;6.97;;;4.18;;
9671;SDS011;4874;43.568;27.824;2022-08-19T12:17:55;9.95;;;4.38;;
9671;SDS011;4874;43.568;27.824;2022-08-19T12:20:23;6.65;;;4.30;;
9671;SDS011;4874;43.568;27.824;2022-08-19T12:22:50;7.13;;;4.03;;
9671;SDS011;4874;43.568;27.824;2022-08-19T12:25:17;7.07;;;4.22;;
9671;SDS011;4874;43.568;27.824;2022-08-19T12:27:44;7.80;;;4.00;;
9671;SDS011;4874;43.568;27.824;2022-08-19T12:30:18;6.63;;;4.30;;
9671;SDS011;4874;43.568;27.824;2022-08-19T12:32:44;7.95;;;4.20;;
9671;SDS011;4874;43.568;27.824;2022-08-19T12:35:11;9.23;;;4.47;;
9671;SDS011;4874;43.568;27.824;2022-08-19T12:37:38;10.65;;;4.43;;
9671;SDS011;4874;43.568;27.824;2022-08-19T12:40:10;8.40;;;4.40;;
9671;SDS011;4874;43.568;27.824;2022-08-19T12:42:40;7.65;;;3.70;;
9671;SDS011;4874;43.568;27.824;2022-08-19T12:45:08;6.05;;;3.78;;
9671;SDS011;4874;43.568;27.824;2022-08-19T12:47:37;13.50;;;4.53;;
9671;SDS011;4874;43.568;27.824;2022-08-19T12:50:06;11.32;;;4.32;;
9671;SDS011;4874;43.568;27.824;2022-08-19T12:52:35;12.23;;;4.60;;
9671;SDS011;4874;43.568;27.824;2022-08-19T12:55:09;7.88;;;4.35;;
9671;SDS011;4874;43.568;27.824;2022-08-19T12:57:36;8.82;;;4.15;;
9671;SDS011;4874;43.568;27.824;2022-08-19T13:00:08;8.32;;;4.47;;
9671;SDS011;4874;43.568;27.824;2022-08-19T13:02:42;7.82;;;3.95;;
9671;SDS011;4874;43.568;27.824;2022-08-19T13:05:15;9.15;;;4.45;;
9671;SDS011;4874;43.568;27.824;2022-08-19T13:07:47;6.55;;;4.00;;
9671;SDS011;4874;43.568;27.824;2022-08-19T13:10:15;8.07;;;4.20;;
9671;SDS011;4874;43.568;27.824;2022-08-19T13:12:46;9.43;;;4.22;;
9671;SDS011;4874;43.568;27.824;2022-08-19T13:15:15;7.13;;;4.07;;
9671;SDS011;4874;43.568;27.824;2022-08-19T13:17:49;7.22;;;3.88;;
9671;SDS011;4874;43.568;27.824;2022-08-19T13:20:19;8.85;;;4.95;;
9671;SDS011;4874;43.568;27.824;2022-08-19T13:22:46;8.98;;;4.10;;
9671;SDS011;4874;43.568;27.824;2022-08-19T13:25:15;8.82;;;4.10;;
9671;SDS011;4874;43.568;27.824;2022-08-19T13:27:43;6.68;;;4.57;;
9671;SDS011;4874;43.568;27.824;2022-08-19T13:30:11;7.75;;;3.97;;
9671;SDS011;4874;43.568;27.824;2022-08-19T13:32:57;6.70;;;3.78;;
9671;SDS011;4874;43.568;27.824;2022-08-19T13:35:44;5.43;;;3.72;;
9671;SDS011;4874;43.568;27.824;2022-08-19T13:38:15;7.53;;;4.10;;
9671;SDS011;4874;43.568;27.824;2022-08-19T13:40:47;7.40;;;4.30;;
9671;SDS011;4874;43.568;27.824;2022-08-19T13:43:15;10.38;;;4.32;;
9671;SDS011;4874;43.568;27.824;2022-08-19T13:45:52;6.68;;;3.92;;
9671;SDS011;4874;43.568;27.824;2022-08-19T13:48:23;9.27;;;4.30;;
9671;SDS011;4874;43.568;27.824;2022-08-19T13:50:52;7.85;;;4.53;;
9671;SDS011;4874;43.568;27.824;2022-08-19T13:53:20;10.93;;;4.38;;
9671;SDS011;4874;43.568;27.824;2022-08-19T13:55:47;9.15;;;4.35;;
9671;SDS011;4874;43.568;27.824;2022-08-19T13:58:14;7.00;;;4.22;;
9671;SDS011;4874;43.568;27.824;2022-08-19T14:00:43;7.90;;;4.50;;
9671;SDS011;4874;43.568;27.824;2022-08-19T14:03:11;6.68;;;4.35;;
9671;SDS011;4874;43.568;27.824;2022-08-19T14:05:38;7.53;;;3.70;;
9671;SDS011;4874;43.568;27.824;2022-08-19T14:08:05;6.72;;;3.90;;
9671;SDS011;4874;43.568;27.824;2022-08-19T14:10:33;9.18;;;4.20;;
9671;SDS011;4874;43.568;27.824;2022-08-19T14:13:01;6.57;;;4.00;;
9671;SDS011;4874;43.568;27.824;2022-08-19T14:15:29;7.00;;;4.55;;
9671;SDS011;4874;43.568;27.824;2022-08-19T14:17:56;5.97;;;4.20;;
9671;SDS011;4874;43.568;27.824;2022-08-19T14:20:23;6.90;;;4.47;;
9671;SDS011;4874;43.568;27.824;2022-08-19T14:22:51;9.10;;;4.90;;
9671;SDS011;4874;43.568;27.824;2022-08-19T14:25:21;9.88;;;4.38;;
9671;SDS011;4874;43.568;27.824;2022-08-19T14:27:50;8.02;;;5.10;;
9671;SDS011;4874;43.568;27.824;2022-08-19T14:30:18;8.45;;;4.95;;
9671;SDS011;4874;43.568;27.824;2022-08-19T14:32:47;11.20;;;5.15;;
9671;SDS011;4874;43.568;27.824;2022-08-19T14:35:14;8.75;;;5.45;;
9671;SDS011;4874;43.568;27.824;2022-08-19T14:37:42;8.23;;;5.03;;
9671;SDS011;4874;43.568;27.824;2022-08-19T14:40:22;14.73;;;5.25;;
9671;SDS011;4874;43.568;27.824;2022-08-19T14:42:59;7.97;;;4.80;;
9671;SDS011;4874;43.568;27.824;2022-08-19T14:45:34;13.88;;;5.47;;
9671;SDS011;4874;43.568;27.824;2022-08-19T14:48:03;9.00;;;4.93;;
9671;SDS011;4874;43.568;27.824;2022-08-19T14:50:33;9.50;;;5.00;;
9671;SDS011;4874;43.568;27.824;2022-08-19T14:53:06;10.52;;;5.65;;
9671;SDS011;4874;43.568;27.824;2022-08-19T14:55:34;13.88;;;5.80;;
9671;SDS011;4874;43.568;27.824;2022-08-19T14:58:02;9.15;;;5.18;;
9671;SDS011;4874;43.568;27.824;2022-08-19T15:00:29;8.35;;;5.10;;
9671;SDS011;4874;43.568;27.824;2022-08-19T15:02:56;9.40;;;5.22;;
9671;SDS011;4874;43.568;27.824;2022-08-19T15:05:22;9.10;;;5.53;;
9671;SDS011;4874;43.568;27.824;2022-08-19T15:07:49;8.10;;;5.13;;
9671;SDS011;4874;43.568;27.824;2022-08-19T15:10:16;9.65;;;5.60;;
9671;SDS011;4874;43.568;27.824;2022-08-19T15:12:43;7.55;;;5.35;;
9671;SDS011;4874;43.568;27.824;2022-08-19T15:15:14;10.05;;;6.00;;
9671;SDS011;4874;43.568;27.824;2022-08-19T15:17:44;11.82;;;6.07;;
9671;SDS011;4874;43.568;27.824;2022-08-19T15:20:15;9.98;;;5.53;;
9671;SDS011;4874;43.568;27.824;2022-08-19T15:22:44;11.18;;;5.15;;